createdAt,value
2019-02-03T00:04:08.752Z,1.70
2019-02-03T00:10:13.784Z,1.72
2019-02-03T00:16:18.531Z,1.69
2019-02-03T00:22:24.023Z,1.55
2019-02-03T00:28:28.903Z,1.49
2019-02-03T00:34:33.570Z,1.60
2019-02-03T00:40:38.208Z,1.66
2019-02-03T00:46:43.602Z,1.62
2019-02-03T00:52:48.236Z,1.71
2019-02-03T00:58:52.930Z,1.62
2019-02-03T01:04:57.851Z,1.62
2019-02-03T01:11:02.646Z,1.86
2019-02-03T01:17:07.967Z,1.69
2019-02-03T01:23:13.480Z,1.71
2019-02-03T01:29:18.358Z,1.86
2019-02-03T01:35:23.114Z,1.94
2019-02-03T01:41:28.349Z,1.79
2019-02-03T01:47:32.935Z,1.77
2019-02-03T01:53:43.958Z,1.72
2019-02-03T01:59:48.825Z,1.84
2019-02-03T02:05:53.629Z,1.88
2019-02-03T02:11:58.402Z,1.72
2019-02-03T02:18:03.067Z,1.70
2019-02-03T02:24:07.742Z,1.87
2019-02-03T02:30:18.008Z,1.86
2019-02-03T02:36:22.647Z,1.80
2019-02-03T02:42:27.415Z,1.58
2019-02-03T02:48:34.635Z,1.60
2019-02-03T02:54:39.313Z,1.30
2019-02-03T03:00:44.491Z,1.28
2019-02-03T03:06:49.390Z,1.18
2019-02-03T03:12:54.020Z,1.01
2019-02-03T03:18:58.938Z,1.04
2019-02-03T03:25:07.375Z,1.15
2019-02-03T03:31:12.431Z,1.07
2019-02-03T03:37:17.181Z,1.34
2019-02-03T03:43:21.896Z,1.26
2019-02-03T03:49:26.549Z,1.41
2019-02-03T03:55:31.249Z,1.39
2019-02-03T04:01:36.601Z,1.31
2019-02-03T04:07:41.743Z,1.47
2019-02-03T04:13:46.396Z,1.35
2019-02-03T04:19:51.122Z,1.21
2019-02-03T04:25:56.131Z,1.09
2019-02-03T04:32:00.835Z,1.11
2019-02-03T04:38:05.752Z,0.97
2019-02-03T04:44:10.598Z,1.13
2019-02-03T04:50:18.342Z,1.13
2019-02-03T04:56:22.889Z,1.41
2019-02-03T05:02:27.528Z,1.28
2019-02-03T05:08:32.197Z,1.41
2019-02-03T05:14:36.940Z,1.34
2019-02-03T05:20:42.152Z,1.21
2019-02-03T05:26:46.957Z,1.21
2019-02-03T05:32:53.131Z,1.21
2019-02-03T05:38:58.083Z,1.10
2019-02-03T05:45:02.815Z,1.01
2019-02-03T05:51:07.444Z,1.16
2019-02-03T05:57:12.699Z,1.18
2019-02-03T06:03:17.420Z,1.19
2019-02-03T06:09:22.436Z,1.26
2019-02-03T06:15:27.465Z,1.29
2019-02-03T06:21:32.251Z,1.41
2019-02-03T06:27:36.873Z,1.36
2019-02-03T06:33:42.476Z,1.48
2019-02-03T06:39:48.868Z,1.38
2019-02-03T06:45:55.294Z,1.45
2019-02-03T06:52:00.112Z,1.34
2019-02-03T06:58:05.003Z,1.35
2019-02-03T07:04:09.614Z,1.20
2019-02-03T07:10:14.590Z,1.12
2019-02-03T07:16:19.152Z,1.17
2019-02-03T07:22:23.717Z,1.18
2019-02-03T07:28:28.561Z,1.06
2019-02-03T07:34:33.359Z,0.92
2019-02-03T07:40:37.985Z,0.97
2019-02-03T07:46:43.647Z,1.00
2019-02-03T07:52:48.739Z,1.00
2019-02-03T07:58:53.310Z,1.00
2019-02-03T08:04:57.932Z,1.10
2019-02-03T08:11:04.667Z,1.20
2019-02-03T08:17:08.820Z,1.25
2019-02-03T08:23:16.517Z,1.18
2019-02-03T08:29:22.968Z,1.21
2019-02-03T08:35:27.629Z,1.28
2019-02-03T08:41:32.252Z,1.32
2019-02-03T08:47:36.818Z,1.38
2019-02-03T08:53:41.420Z,1.38
2019-02-03T08:59:46.070Z,1.50
2019-02-03T09:05:50.780Z,1.59
2019-02-03T09:11:55.454Z,1.57
2019-02-03T09:18:00.150Z,1.70
2019-02-03T09:24:05.557Z,1.78
2019-02-03T09:30:16.151Z,2.07
2019-02-03T09:36:22.372Z,2.13
2019-02-03T09:42:27.071Z,2.39
2019-02-03T09:48:31.734Z,2.51
2019-02-03T09:54:36.379Z,2.60
2019-02-03T10:00:41.081Z,2.76
2019-02-03T10:06:45.702Z,2.69
2019-02-03T10:12:50.403Z,2.73
2019-02-03T10:18:54.960Z,2.82
2019-02-03T10:25:00.879Z,2.95
2019-02-03T10:31:05.572Z,2.95
2019-02-03T10:37:10.397Z,2.92
2019-02-03T10:43:15.257Z,2.97
2019-02-03T10:49:19.903Z,2.75
2019-02-03T10:55:25.247Z,2.66
2019-02-03T11:01:30.019Z,2.69
2019-02-03T11:07:35.009Z,2.62
2019-02-03T11:13:39.621Z,2.61
2019-02-03T11:19:44.598Z,2.61
2019-02-03T11:25:49.653Z,2.66
2019-02-03T11:31:54.515Z,2.69
2019-02-03T11:37:59.578Z,2.79
2019-02-03T11:44:04.435Z,2.92
2019-02-03T11:50:29.748Z,2.94
2019-02-03T11:56:34.303Z,3.15
2019-02-03T12:02:42.051Z,3.36
2019-02-03T12:08:45.722Z,3.23
2019-02-03T12:14:50.282Z,3.39
2019-02-03T12:20:57.406Z,3.64
2019-02-03T12:27:01.963Z,3.67
2019-02-03T12:33:08.346Z,3.93
2019-02-03T12:39:13.421Z,3.76
2019-02-03T12:45:23.728Z,3.99
2019-02-03T12:51:28.307Z,3.98
2019-02-03T12:57:33.549Z,3.84
2019-02-03T13:03:42.147Z,3.81
2019-02-03T13:09:46.865Z,3.78
2019-02-03T13:15:52.717Z,3.65
2019-02-03T13:21:58.519Z,3.49
2019-02-03T13:28:03.243Z,3.31
2019-02-03T13:34:07.956Z,3.46
2019-02-03T13:40:14.477Z,3.52
2019-02-03T13:46:19.095Z,3.45
2019-02-03T13:52:23.814Z,3.75
2019-02-03T13:58:36.748Z,3.87
2019-02-03T14:04:34.842Z,4.23
2019-02-03T14:10:42.259Z,4.21
2019-02-03T14:16:46.854Z,4.16
2019-02-03T14:22:51.751Z,3.79
2019-02-03T14:28:56.324Z,3.88
2019-02-03T14:35:00.885Z,3.96
2019-02-03T14:41:09.316Z,3.85
2019-02-03T14:47:14.266Z,3.63
2019-02-03T14:53:19.096Z,3.52
2019-02-03T14:59:23.658Z,3.65
2019-02-03T15:05:28.305Z,3.69
2019-02-03T15:11:32.948Z,3.69
2019-02-03T15:17:39.360Z,3.71
2019-02-03T15:23:44.303Z,3.74
2019-02-03T15:29:49.075Z,3.92
2019-02-03T15:35:53.808Z,3.69
2019-02-03T15:41:58.450Z,3.64
2019-02-03T15:48:03.030Z,3.72
2019-02-03T15:54:07.861Z,3.48
2019-02-03T16:00:37.351Z,3.33
2019-02-03T16:06:42.055Z,3.29
2019-02-03T16:12:46.915Z,3.21
2019-02-03T16:18:51.734Z,3.10
2019-02-03T16:24:56.364Z,3.06
2019-02-03T16:31:00.954Z,2.90
2019-02-03T16:37:06.559Z,3.17
2019-02-03T16:43:11.277Z,2.90
2019-02-03T16:49:16.699Z,3.02
2019-02-03T16:55:22.072Z,2.99
2019-02-03T17:01:26.719Z,2.84
2019-02-03T17:07:31.314Z,2.76
2019-02-03T17:13:36.288Z,2.77
2019-02-03T17:19:41.132Z,2.80
2019-02-03T17:25:53.138Z,2.77
2019-02-03T17:31:57.774Z,2.90
2019-02-03T17:38:02.483Z,2.99
2019-02-03T17:44:12.885Z,2.96
2019-02-03T17:50:18.154Z,2.91
2019-02-03T17:56:22.900Z,3.02
2019-02-03T18:02:27.600Z,2.79
2019-02-03T18:08:33.362Z,2.96
2019-02-03T18:14:37.937Z,2.83
2019-02-03T18:20:42.586Z,2.85
2019-02-03T18:26:47.268Z,2.53
2019-02-03T18:32:52.223Z,2.61
2019-02-03T18:38:56.936Z,2.45
2019-02-03T18:45:02.620Z,2.34
2019-02-03T18:51:07.330Z,2.44
2019-02-03T18:57:12.508Z,2.24
2019-02-03T19:03:17.530Z,2.26
2019-02-03T19:09:22.163Z,2.15
2019-02-03T19:15:29.736Z,2.11
2019-02-03T19:21:34.644Z,1.74
2019-02-03T19:27:39.391Z,1.86
2019-02-03T19:33:44.047Z,1.65
2019-02-03T19:39:48.598Z,1.54
2019-02-03T19:45:53.192Z,1.38
2019-02-03T19:51:59.689Z,1.30
2019-02-03T19:58:08.217Z,1.20
2019-02-03T20:04:13.091Z,1.14
2019-02-03T20:10:22.249Z,1.00
2019-02-03T20:16:27.280Z,0.93
2019-02-03T20:22:31.838Z,0.90
2019-02-03T20:28:36.489Z,0.96
2019-02-03T20:34:44.151Z,1.02
2019-02-03T20:40:48.738Z,1.15
2019-02-03T20:46:53.373Z,1.24
2019-02-03T20:52:58.139Z,1.21
2019-02-03T20:59:02.948Z,1.27
2019-02-03T21:05:08.806Z,1.39
2019-02-03T21:11:13.522Z,1.22
2019-02-03T21:17:18.093Z,1.12
2019-02-03T21:23:23.729Z,1.00
2019-02-03T21:29:28.329Z,0.93
2019-02-03T21:35:32.941Z,0.95
2019-02-03T21:41:37.731Z,0.81
2019-02-03T21:47:42.535Z,0.64
2019-02-03T21:53:47.478Z,0.59
2019-02-03T21:59:52.028Z,0.61
2019-02-03T22:05:56.604Z,0.65
2019-02-03T22:12:02.187Z,0.61
2019-02-03T22:18:07.251Z,0.62
2019-02-03T22:24:12.232Z,0.68
2019-02-03T22:30:26.578Z,0.34
2019-02-03T22:36:31.301Z,0.34
2019-02-03T22:42:35.949Z,0.38
2019-02-03T22:48:40.674Z,0.37
2019-02-03T22:54:45.359Z,0.44
2019-02-03T23:00:55.451Z,0.48
2019-02-03T23:07:00.149Z,0.50
2019-02-03T23:13:05.293Z,0.63
2019-02-03T23:19:12.868Z,0.35
2019-02-03T23:25:17.739Z,0.41
2019-02-03T23:31:22.409Z,0.34
2019-02-03T23:37:27.179Z,0.16
2019-02-03T23:43:31.840Z,0.05
2019-02-03T23:49:37.184Z,-0.07
2019-02-03T23:55:42.359Z,-0.23
